Callands, Virginia
Current Conditions -  °F | °C
As of 11:53 PM on Friday 19 Dec 2014 (Local Time) from KDAN Reporting Station
Clear Clear  
Wind Chill: 29°   Ceiling: Unl
Heat Index: 33°   Visibility: 10mi
Dew Point: 26°   Wind: 5mph
Humidity: 75%   Direction: 350°N
Pressure: 30.23"   Gusts: NA
Location:  36.82°N, 79.59°W
Report Text: KDAN 200453Z AUTO 35004KT 10SM CLR 01/M03 A3023 RMK AO2 SLP232 T00061033 401060000
Loading
Personal Weather Stations






























Interactive Weather Map New forecast layout! Learn more

10-Day Weather Forecast

Advertisements
Track Severe Weather on mobile